Time,TemperatureF,DewpointF,PressureIn,WindDirection,WindDirectionDegrees,WindSpeedMPH,WindSpeedGustMPH,Humidity,HourlyPrecipIn,Conditions,Clouds,dailyrainin,SoftwareType,DateUTC
2013-06-13 00:01:00,60.0,37.0,-100.00,WNW,300,17.0,24.0,42,-99.99,,,-99.99,,2013-06-13 07:01:00,
2013-06-13 00:11:00,60.0,37.0,-100.00,WNW,300,17.0,24.0,42,-99.99,,,-99.99,,2013-06-13 07:11:00,
2013-06-13 01:01:00,59.0,37.0,-100.00,WNW,297,15.0,21.0,43,-99.99,,,-99.99,,2013-06-13 08:01:00,
2013-06-13 01:11:00,59.0,37.0,-100.00,WNW,297,15.0,21.0,43,-99.99,,,-99.99,,2013-06-13 08:11:00,
2013-06-13 02:01:00,58.0,37.0,-100.00,WNW,302,16.0,24.0,45,-99.99,,,-99.99,,2013-06-13 09:01:00,
2013-06-13 02:11:00,58.0,37.0,-100.00,WNW,302,16.0,24.0,45,-99.99,,,-99.99,,2013-06-13 09:11:00,
2013-06-13 03:01:00,58.0,37.0,-100.00,NW,305,13.0,20.0,45,-99.99,,,-99.99,,2013-06-13 10:01:00,
2013-06-13 03:11:00,58.0,37.0,-100.00,NW,305,13.0,20.0,45,-99.99,,,-99.99,,2013-06-13 10:11:00,
2013-06-13 04:01:00,57.0,38.0,-100.00,WNW,284,16.0,22.0,48,-99.99,,,-99.99,,2013-06-13 11:01:00,
2013-06-13 04:11:00,57.0,38.0,-100.00,WNW,284,16.0,22.0,48,-99.99,,,-99.99,,2013-06-13 11:11:00,
2013-06-13 05:01:00,57.0,37.0,-100.00,WNW,288,13.0,20.0,47,-99.99,,,-99.99,,2013-06-13 12:01:00,
2013-06-13 05:11:00,57.0,37.0,-100.00,WNW,288,13.0,20.0,47,-99.99,,,-99.99,,2013-06-13 12:11:00,
2013-06-13 06:01:00,55.0,36.0,-100.00,West,276,10.0,12.0,48,-99.99,,,-99.99,,2013-06-13 13:01:00,
2013-06-13 06:11:00,55.0,36.0,-100.00,West,276,10.0,12.0,48,-99.99,,,-99.99,,2013-06-13 13:11:00,
2013-06-13 07:02:00,55.0,36.0,-100.00,SSW,213,5.0,10.0,48,-99.99,,,-99.99,,2013-06-13 14:02:00,
2013-06-13 07:11:00,55.0,36.0,-100.00,SSW,213,5.0,10.0,48,-99.99,,,-99.99,,2013-06-13 14:11:00,
2013-06-13 08:01:00,60.0,37.0,-100.00,West,268,6.0,14.0,42,-99.99,,,-99.99,,2013-06-13 15:01:00,
2013-06-13 08:12:00,60.0,37.0,-100.00,West,268,6.0,14.0,42,-99.99,,,-99.99,,2013-06-13 15:12:00,
2013-06-13 09:01:00,62.0,38.0,-100.00,NW,306,8.0,14.0,40,-99.99,,,-99.99,,2013-06-13 16:01:00,
2013-06-13 09:11:00,62.0,38.0,-100.00,NW,306,8.0,14.0,40,-99.99,,,-99.99,,2013-06-13 16:11:00,
2013-06-13 10:02:00,64.0,36.0,-100.00,WNW,282,7.0,13.0,35,-99.99,,,-99.99,,2013-06-13 17:02:00,
2013-06-13 10:11:00,64.0,36.0,-100.00,WNW,282,7.0,13.0,35,-99.99,,,-99.99,,2013-06-13 17:11:00,
2013-06-13 11:02:00,67.0,35.0,-100.00,WSW,248,5.0,12.0,30,-99.99,,,-99.99,,2013-06-13 18:02:00,
2013-06-13 11:11:00,67.0,35.0,-100.00,WSW,248,5.0,12.0,30,-99.99,,,-99.99,,2013-06-13 18:11:00,
2013-06-13 12:01:00,68.0,35.0,-100.00,West,262,6.0,14.0,29,-99.99,,,-99.99,,2013-06-13 19:01:00,
2013-06-13 12:11:00,68.0,35.0,-100.00,West,262,6.0,14.0,29,-99.99,,,-99.99,,2013-06-13 19:11:00,
2013-06-13 13:01:00,71.0,34.0,-100.00,SSW,196,6.0,12.0,25,-99.99,,,-99.99,,2013-06-13 20:01:00,
2013-06-13 13:11:00,71.0,34.0,-100.00,SSW,196,6.0,12.0,25,-99.99,,,-99.99,,2013-06-13 20:11:00,
2013-06-13 14:01:00,71.0,35.0,-100.00,WSW,245,9.0,17.0,26,-99.99,,,-99.99,,2013-06-13 21:01:00,
2013-06-13 14:11:00,71.0,35.0,-100.00,WSW,245,9.0,17.0,26,-99.99,,,-99.99,,2013-06-13 21:11:00,
2013-06-13 15:01:00,71.0,34.0,-100.00,WSW,253,9.0,16.0,25,-99.99,,,-99.99,,2013-06-13 22:01:00,
2013-06-13 15:11:00,71.0,34.0,-100.00,WSW,253,9.0,16.0,25,-99.99,,,-99.99,,2013-06-13 22:11:00,
2013-06-13 16:01:00,72.0,33.0,-100.00,WSW,240,9.0,15.0,23,-99.99,,,-99.99,,2013-06-13 23:01:00,
2013-06-13 16:11:00,72.0,33.0,-100.00,WSW,240,9.0,15.0,23,-99.99,,,-99.99,,2013-06-13 23:11:00,
2013-06-13 17:01:00,74.0,33.0,-100.00,WNW,286,8.0,15.0,22,-99.99,,,-99.99,,2013-06-14 00:01:00,
2013-06-13 17:11:00,74.0,33.0,-100.00,WNW,286,8.0,15.0,22,-99.99,,,-99.99,,2013-06-14 00:11:00,
2013-06-13 18:01:00,69.0,38.0,-100.00,WNW,291,21.0,28.0,32,-99.99,,,-99.99,,2013-06-14 01:01:00,
2013-06-13 18:11:00,69.0,38.0,-100.00,WNW,291,21.0,28.0,32,-99.99,,,-99.99,,2013-06-14 01:11:00,
2013-06-13 19:02:00,69.0,36.0,-100.00,NW,304,12.0,18.0,29,-99.99,,,-99.99,,2013-06-14 02:02:00,
2013-06-13 19:11:00,69.0,36.0,-100.00,NW,304,12.0,18.0,29,-99.99,,,-99.99,,2013-06-14 02:11:00,
2013-06-13 20:02:00,69.0,36.0,-100.00,WNW,297,17.0,27.0,29,-99.99,,,-99.99,,2013-06-14 03:02:00,
2013-06-13 20:11:00,69.0,36.0,-100.00,WNW,297,17.0,27.0,29,-99.99,,,-99.99,,2013-06-14 03:11:00,
2013-06-13 21:01:00,65.0,39.0,-100.00,WNW,303,16.0,27.0,38,-99.99,,,-99.99,,2013-06-14 04:01:00,
2013-06-13 21:12:00,65.0,39.0,-100.00,WNW,303,16.0,27.0,38,-99.99,,,-99.99,,2013-06-14 04:12:00,
2013-06-13 22:02:00,63.0,39.0,-100.00,WNW,291,18.0,29.0,41,-99.99,,,-99.99,,2013-06-14 05:02:00,
2013-06-13 22:11:00,63.0,39.0,-100.00,WNW,291,18.0,29.0,41,-99.99,,,-99.99,,2013-06-14 05:11:00,
2013-06-13 23:02:00,61.0,38.0,-100.00,WNW,287,18.0,27.0,42,-99.99,,,-99.99,,2013-06-14 06:02:00,
2013-06-13 23:12:00,61.0,38.0,-100.00,WNW,287,18.0,27.0,42,-99.99,,,-99.99,,2013-06-14 06:12:00,